createdAt,value
2022-12-23T20:49:56.839Z,99547.31
2022-12-23T20:52:29.896Z,99547.31
2022-12-23T20:54:57.219Z,99541.31
2022-12-23T20:57:33.571Z,99533.88
2022-12-23T21:00:04.141Z,99537.34
2022-12-23T21:02:37.040Z,99539.06
2022-12-23T21:05:06.755Z,99535.59
2022-12-23T21:07:43.463Z,99545.84
2022-12-23T21:10:17.055Z,99545.38
2022-12-23T21:12:49.739Z,99548.06
2022-12-23T21:15:22.479Z,99547.56
2022-12-23T21:17:55.324Z,99545.97
2022-12-23T21:20:25.971Z,99546.59
2022-12-23T21:22:58.247Z,99554.19
2022-12-23T21:25:31.148Z,99557.16
2022-12-23T21:28:04.156Z,99561.16
2022-12-23T21:30:34.043Z,99550.38
2022-12-23T21:33:04.783Z,99544.69
2022-12-23T21:35:36.768Z,99541.22
2022-12-23T21:40:49.881Z,99530.63
2022-12-23T21:43:23.766Z,99521.94
2022-12-23T21:46:03.188Z,99525.62
2022-12-23T21:48:39.795Z,99533.88
2022-12-23T21:51:13.215Z,99533.72
2022-12-23T21:53:47.928Z,99548.94
2022-12-23T21:56:25.689Z,99536.16
2022-12-23T21:59:00.410Z,99536.81
2022-12-23T22:01:30.962Z,99531.59
2022-12-23T22:06:32.631Z,99542.72
2022-12-23T22:09:10.280Z,99528.03
2022-12-23T22:11:43.001Z,99523.13
2022-12-23T22:14:17.448Z,99520.94
2022-12-23T22:16:57.411Z,99518.41
2022-12-23T22:19:25.959Z,99515.88
2022-12-23T22:21:57.999Z,99520.63
2022-12-23T22:24:32.579Z,99519.53
2022-12-23T22:27:08.897Z,99503.84
2022-12-23T22:29:45.245Z,99495.44
2022-12-23T22:32:23.168Z,99482.81
2022-12-23T22:35:01.900Z,99484.06
2022-12-23T22:37:36.526Z,99477.31
2022-12-23T22:40:09.568Z,99473.50
2022-12-23T22:42:42.576Z,99462.72
2022-12-23T22:45:18.866Z,99448.12
2022-12-23T22:47:52.571Z,99457.34
2022-12-23T22:50:22.576Z,99438.97
2022-12-23T22:52:55.994Z,99440.06
2022-12-23T22:55:26.511Z,99451.78
2022-12-23T22:57:53.579Z,99454.47
2022-12-23T23:00:28.981Z,99468.44
2022-12-23T23:02:59.649Z,99452.75
2022-12-23T23:05:39.068Z,99464.00
2022-12-23T23:08:12.484Z,99463.69
2022-12-23T23:10:53.517Z,99484.94
2022-12-23T23:13:25.716Z,99477.66
2022-12-23T23:15:57.787Z,99489.66
2022-12-23T23:18:26.321Z,99509.03
2022-12-23T23:21:00.774Z,99523.00
2022-12-23T23:23:35.215Z,99529.16
2022-12-23T23:26:15.265Z,99526.63
2022-12-23T23:28:59.260Z,99522.66
2022-12-23T23:31:41.744Z,99531.53
2022-12-23T23:34:25.565Z,99534.72
2022-12-23T23:39:48.521Z,99513.47
2022-12-23T23:42:24.487Z,99522.34
2022-12-23T23:45:00.421Z,99524.56
2022-12-23T23:47:32.513Z,99523.78
2022-12-23T23:50:07.656Z,99500.94
2022-12-23T23:52:41.364Z,99507.44
2022-12-23T23:55:15.449Z,99508.25
2022-12-23T23:57:51.390Z,99513.63
